sensor_id;sensor_type;location;lat;lon;timestamp;temperature;humidity
23609;DHT22;11982;50.810;4.442;2022-08-01T00:01:50;20.00;99.90
23609;DHT22;11982;50.810;4.442;2022-08-01T00:04:15;20.00;99.90
23609;DHT22;11982;50.810;4.442;2022-08-01T00:06:41;20.00;99.90
23609;DHT22;11982;50.810;4.442;2022-08-01T00:09:07;20.00;99.90
23609;DHT22;11982;50.810;4.442;2022-08-01T00:11:32;20.00;99.90
23609;DHT22;11982;50.810;4.442;2022-08-01T00:13:58;19.90;99.90
23609;DHT22;11982;50.810;4.442;2022-08-01T00:16:23;20.00;99.90
23609;DHT22;11982;50.810;4.442;2022-08-01T00:18:50;20.00;99.90
23609;DHT22;11982;50.810;4.442;2022-08-01T00:21:16;20.00;99.90
23609;DHT22;11982;50.810;4.442;2022-08-01T00:23:42;20.10;99.90
23609;DHT22;11982;50.810;4.442;2022-08-01T00:26:08;20.10;99.90
23609;DHT22;11982;50.810;4.442;2022-08-01T00:28:34;20.10;99.90
23609;DHT22;11982;50.810;4.442;2022-08-01T00:31:00;20.00;99.90
23609;DHT22;11982;50.810;4.442;2022-08-01T00:33:25;20.00;99.90
23609;DHT22;11982;50.810;4.442;2022-08-01T00:35:51;20.00;99.90
23609;DHT22;11982;50.810;4.442;2022-08-01T00:38:17;20.00;99.90
23609;DHT22;11982;50.810;4.442;2022-08-01T00:40:42;20.00;99.90
23609;DHT22;11982;50.810;4.442;2022-08-01T00:43:09;19.90;99.90
23609;DHT22;11982;50.810;4.442;2022-08-01T00:45:35;20.00;99.90
23609;DHT22;11982;50.810;4.442;2022-08-01T00:48:01;19.90;99.90
23609;DHT22;11982;50.810;4.442;2022-08-01T00:50:26;19.80;99.90
23609;DHT22;11982;50.810;4.442;2022-08-01T00:52:53;19.80;99.90
23609;DHT22;11982;50.810;4.442;2022-08-01T00:55:20;19.80;99.90
23609;DHT22;11982;50.810;4.442;2022-08-01T00:57:46;19.90;99.90
23609;DHT22;11982;50.810;4.442;2022-08-01T01:00:13;19.90;99.90
23609;DHT22;11982;50.810;4.442;2022-08-01T01:02:38;19.80;99.90
23609;DHT22;11982;50.810;4.442;2022-08-01T01:05:04;19.80;99.90
23609;DHT22;11982;50.810;4.442;2022-08-01T01:07:56;19.90;99.90
23609;DHT22;11982;50.810;4.442;2022-08-01T01:10:58;19.80;99.90
23609;DHT22;11982;50.810;4.442;2022-08-01T01:13:41;19.80;99.90
23609;DHT22;11982;50.810;4.442;2022-08-01T01:16:19;19.80;99.90
23609;DHT22;11982;50.810;4.442;2022-08-01T01:18:55;19.90;99.90
23609;DHT22;11982;50.810;4.442;2022-08-01T01:26:45;19.80;99.90
23609;DHT22;11982;50.810;4.442;2022-08-01T01:30:06;19.80;99.90
23609;DHT22;11982;50.810;4.442;2022-08-01T01:32:42;19.70;99.90
23609;DHT22;11982;50.810;4.442;2022-08-01T01:35:26;19.80;99.90
23609;DHT22;11982;50.810;4.442;2022-08-01T01:37:58;19.70;99.90
23609;DHT22;11982;50.810;4.442;2022-08-01T01:40:25;19.70;99.90
23609;DHT22;11982;50.810;4.442;2022-08-01T01:42:53;19.70;99.90
23609;DHT22;11982;50.810;4.442;2022-08-01T01:45:21;19.80;99.90
23609;DHT22;11982;50.810;4.442;2022-08-01T01:47:49;19.70;99.90
23609;DHT22;11982;50.810;4.442;2022-08-01T01:50:16;19.70;99.90
23609;DHT22;11982;50.810;4.442;2022-08-01T01:52:46;19.70;99.90
23609;DHT22;11982;50.810;4.442;2022-08-01T01:55:13;19.70;99.90
23609;DHT22;11982;50.810;4.442;2022-08-01T01:57:41;19.70;99.90
23609;DHT22;11982;50.810;4.442;2022-08-01T02:00:12;19.60;99.90
23609;DHT22;11982;50.810;4.442;2022-08-01T02:02:40;19.60;99.90
23609;DHT22;11982;50.810;4.442;2022-08-01T02:05:09;19.60;99.90
23609;DHT22;11982;50.810;4.442;2022-08-01T02:07:36;19.50;99.90
23609;DHT22;11982;50.810;4.442;2022-08-01T02:10:03;19.40;99.90
23609;DHT22;11982;50.810;4.442;2022-08-01T02:12:34;19.50;99.90
23609;DHT22;11982;50.810;4.442;2022-08-01T02:15:02;19.40;99.90
23609;DHT22;11982;50.810;4.442;2022-08-01T02:17:29;19.40;99.90
23609;DHT22;11982;50.810;4.442;2022-08-01T02:19:56;19.50;99.90
23609;DHT22;11982;50.810;4.442;2022-08-01T02:22:36;19.40;99.90
23609;DHT22;11982;50.810;4.442;2022-08-01T02:27:45;19.40;99.90
23609;DHT22;11982;50.810;4.442;2022-08-01T02:30:13;19.40;99.90
23609;DHT22;11982;50.810;4.442;2022-08-01T02:32:44;19.40;99.90
23609;DHT22;11982;50.810;4.442;2022-08-01T02:35:25;19.50;99.90
23609;DHT22;11982;50.810;4.442;2022-08-01T02:37:53;19.50;99.90
23609;DHT22;11982;50.810;4.442;2022-08-01T02:40:19;19.50;99.90
23609;DHT22;11982;50.810;4.442;2022-08-01T02:42:49;19.40;99.90
23609;DHT22;11982;50.810;4.442;2022-08-01T02:45:18;19.30;99.90
23609;DHT22;11982;50.810;4.442;2022-08-01T02:47:44;19.40;99.90
23609;DHT22;11982;50.810;4.442;2022-08-01T02:50:12;19.40;99.90
23609;DHT22;11982;50.810;4.442;2022-08-01T02:52:40;19.30;99.90
23609;DHT22;11982;50.810;4.442;2022-08-01T02:55:08;19.30;99.90
23609;DHT22;11982;50.810;4.442;2022-08-01T02:57:35;19.30;99.90
23609;DHT22;11982;50.810;4.442;2022-08-01T03:00:03;19.30;99.90
23609;DHT22;11982;50.810;4.442;2022-08-01T03:02:30;19.40;99.90
23609;DHT22;11982;50.810;4.442;2022-08-01T03:04:57;19.40;99.90
23609;DHT22;11982;50.810;4.442;2022-08-01T03:07:25;19.30;99.90
23609;DHT22;11982;50.810;4.442;2022-08-01T03:09:51;19.30;99.90
23609;DHT22;11982;50.810;4.442;2022-08-01T03:12:20;19.30;99.90
23609;DHT22;11982;50.810;4.442;2022-08-01T03:14:48;19.30;99.90
23609;DHT22;11982;50.810;4.442;2022-08-01T03:17:18;19.30;99.90
23609;DHT22;11982;50.810;4.442;2022-08-01T03:19:45;19.20;99.90
23609;DHT22;11982;50.810;4.442;2022-08-01T03:22:12;19.10;99.90
23609;DHT22;11982;50.810;4.442;2022-08-01T03:24:40;19.10;99.90
23609;DHT22;11982;50.810;4.442;2022-08-01T03:27:07;19.10;99.90
23609;DHT22;11982;50.810;4.442;2022-08-01T03:29:34;19.00;99.90
23609;DHT22;11982;50.810;4.442;2022-08-01T03:32:00;19.10;99.90
23609;DHT22;11982;50.810;4.442;2022-08-01T03:34:26;19.10;99.90
23609;DHT22;11982;50.810;4.442;2022-08-01T03:37:01;19.20;99.90
23609;DHT22;11982;50.810;4.442;2022-08-01T03:39:49;19.10;99.90
23609;DHT22;11982;50.810;4.442;2022-08-01T03:42:18;19.10;99.90
23609;DHT22;11982;50.810;4.442;2022-08-01T03:44:54;19.00;99.90
23609;DHT22;11982;50.810;4.442;2022-08-01T03:47:22;19.00;99.90
23609;DHT22;11982;50.810;4.442;2022-08-01T03:49:50;19.00;99.90
23609;DHT22;11982;50.810;4.442;2022-08-01T03:52:18;18.90;99.90
23609;DHT22;11982;50.810;4.442;2022-08-01T03:54:47;18.90;99.90
23609;DHT22;11982;50.810;4.442;2022-08-01T03:57:15;18.90;99.90
23609;DHT22;11982;50.810;4.442;2022-08-01T03:59:42;18.90;99.90
23609;DHT22;11982;50.810;4.442;2022-08-01T04:02:08;18.90;99.90
23609;DHT22;11982;50.810;4.442;2022-08-01T04:04:35;18.90;99.90
23609;DHT22;11982;50.810;4.442;2022-08-01T04:07:01;19.00;99.90
23609;DHT22;11982;50.810;4.442;2022-08-01T04:09:32;19.10;99.90
23609;DHT22;11982;50.810;4.442;2022-08-01T04:12:01;19.00;99.90
23609;DHT22;11982;50.810;4.442;2022-08-01T04:14:28;19.10;99.90
23609;DHT22;11982;50.810;4.442;2022-08-01T04:16:54;19.10;99.90
23609;DHT22;11982;50.810;4.442;2022-08-01T04:19:20;19.00;99.90
23609;DHT22;11982;50.810;4.442;2022-08-01T04:21:46;18.90;99.90
23609;DHT22;11982;50.810;4.442;2022-08-01T04:24:17;18.90;99.90
23609;DHT22;11982;50.810;4.442;2022-08-01T04:26:45;18.80;99.90
23609;DHT22;11982;50.810;4.442;2022-08-01T04:29:11;18.80;99.90
23609;DHT22;11982;50.810;4.442;2022-08-01T04:31:42;18.90;99.90
23609;DHT22;11982;50.810;4.442;2022-08-01T04:34:12;18.80;99.90
23609;DHT22;11982;50.810;4.442;2022-08-01T04:36:40;18.90;99.90
23609;DHT22;11982;50.810;4.442;2022-08-01T04:39:08;18.90;99.90
23609;DHT22;11982;50.810;4.442;2022-08-01T04:41:35;18.80;99.90
23609;DHT22;11982;50.810;4.442;2022-08-01T04:44:02;18.70;99.90
23609;DHT22;11982;50.810;4.442;2022-08-01T04:46:29;18.70;99.90
23609;DHT22;11982;50.810;4.442;2022-08-01T04:48:55;18.80;99.90
23609;DHT22;11982;50.810;4.442;2022-08-01T04:51:21;18.70;99.90
23609;DHT22;11982;50.810;4.442;2022-08-01T04:53:48;18.70;99.90
23609;DHT22;11982;50.810;4.442;2022-08-01T04:56:14;18.70;99.90
23609;DHT22;11982;50.810;4.442;2022-08-01T04:58:41;18.80;99.90
23609;DHT22;11982;50.810;4.442;2022-08-01T05:01:07;18.90;99.90
23609;DHT22;11982;50.810;4.442;2022-08-01T05:03:33;18.90;99.90
23609;DHT22;11982;50.810;4.442;2022-08-01T05:05:59;18.90;99.90
23609;DHT22;11982;50.810;4.442;2022-08-01T05:08:24;18.90;99.90
23609;DHT22;11982;50.810;4.442;2022-08-01T05:10:50;19.00;99.90
23609;DHT22;11982;50.810;4.442;2022-08-01T05:13:16;18.90;99.90
23609;DHT22;11982;50.810;4.442;2022-08-01T05:15:41;18.80;99.90
23609;DHT22;11982;50.810;4.442;2022-08-01T05:18:07;18.60;99.90
23609;DHT22;11982;50.810;4.442;2022-08-01T05:20:33;18.70;99.90
23609;DHT22;11982;50.810;4.442;2022-08-01T05:22:58;18.70;99.90
23609;DHT22;11982;50.810;4.442;2022-08-01T05:25:24;18.70;99.90
23609;DHT22;11982;50.810;4.442;2022-08-01T05:27:49;18.90;99.90
23609;DHT22;11982;50.810;4.442;2022-08-01T05:30:15;19.00;99.90
23609;DHT22;11982;50.810;4.442;2022-08-01T05:32:41;19.10;99.90
23609;DHT22;11982;50.810;4.442;2022-08-01T05:35:08;19.10;99.90
23609;DHT22;11982;50.810;4.442;2022-08-01T05:37:34;19.10;99.90
23609;DHT22;11982;50.810;4.442;2022-08-01T05:40:00;19.10;99.90
23609;DHT22;11982;50.810;4.442;2022-08-01T05:42:25;19.00;99.90
23609;DHT22;11982;50.810;4.442;2022-08-01T05:44:51;19.00;99.90
23609;DHT22;11982;50.810;4.442;2022-08-01T05:47:17;19.00;99.90
23609;DHT22;11982;50.810;4.442;2022-08-01T05:49:44;19.20;99.90
23609;DHT22;11982;50.810;4.442;2022-08-01T05:52:10;19.30;99.90
23609;DHT22;11982;50.810;4.442;2022-08-01T05:54:36;19.50;99.90
23609;DHT22;11982;50.810;4.442;2022-08-01T05:57:01;19.60;99.90
23609;DHT22;11982;50.810;4.442;2022-08-01T05:59:28;19.80;99.90
23609;DHT22;11982;50.810;4.442;2022-08-01T06:01:54;19.90;99.90
23609;DHT22;11982;50.810;4.442;2022-08-01T06:04:20;20.00;99.90
23609;DHT22;11982;50.810;4.442;2022-08-01T06:06:45;20.10;99.90
23609;DHT22;11982;50.810;4.442;2022-08-01T06:09:11;20.20;99.90
23609;DHT22;11982;50.810;4.442;2022-08-01T06:11:36;20.20;99.90
23609;DHT22;11982;50.810;4.442;2022-08-01T06:14:02;20.00;99.90
23609;DHT22;11982;50.810;4.442;2022-08-01T06:16:28;20.20;99.90
23609;DHT22;11982;50.810;4.442;2022-08-01T06:18:53;20.20;99.90
23609;DHT22;11982;50.810;4.442;2022-08-01T06:21:19;20.30;99.90
23609;DHT22;11982;50.810;4.442;2022-08-01T06:23:44;20.40;99.90
23609;DHT22;11982;50.810;4.442;2022-08-01T06:26:10;20.60;99.90
23609;DHT22;11982;50.810;4.442;2022-08-01T06:28:36;20.50;99.90
23609;DHT22;11982;50.810;4.442;2022-08-01T06:31:02;20.60;99.90
23609;DHT22;11982;50.810;4.442;2022-08-01T06:33:28;20.50;99.90
23609;DHT22;11982;50.810;4.442;2022-08-01T06:35:54;20.50;99.90
23609;DHT22;11982;50.810;4.442;2022-08-01T06:38:19;20.50;99.90
23609;DHT22;11982;50.810;4.442;2022-08-01T06:40:45;20.50;99.90
23609;DHT22;11982;50.810;4.442;2022-08-01T06:43:11;20.80;99.90
23609;DHT22;11982;50.810;4.442;2022-08-01T06:45:40;20.90;99.90
23609;DHT22;11982;50.810;4.442;2022-08-01T06:48:06;21.00;99.90
23609;DHT22;11982;50.810;4.442;2022-08-01T06:50:32;21.10;99.90
23609;DHT22;11982;50.810;4.442;2022-08-01T06:52:58;21.30;99.90
23609;DHT22;11982;50.810;4.442;2022-08-01T06:55:23;21.30;99.90
23609;DHT22;11982;50.810;4.442;2022-08-01T06:57:50;21.30;99.90
23609;DHT22;11982;50.810;4.442;2022-08-01T07:00:18;21.20;99.90
23609;DHT22;11982;50.810;4.442;2022-08-01T07:02:46;21.10;99.90
23609;DHT22;11982;50.810;4.442;2022-08-01T07:05:13;21.30;99.90
23609;DHT22;11982;50.810;4.442;2022-08-01T07:07:38;21.30;99.90
23609;DHT22;11982;50.810;4.442;2022-08-01T07:10:04;21.30;99.90
23609;DHT22;11982;50.810;4.442;2022-08-01T07:12:30;21.40;99.90
23609;DHT22;11982;50.810;4.442;2022-08-01T07:14:56;21.40;99.90
23609;DHT22;11982;50.810;4.442;2022-08-01T07:17:21;21.60;99.90
23609;DHT22;11982;50.810;4.442;2022-08-01T07:19:47;21.80;99.90
23609;DHT22;11982;50.810;4.442;2022-08-01T07:22:13;22.30;99.90
23609;DHT22;11982;50.810;4.442;2022-08-01T07:24:42;22.70;99.90
23609;DHT22;11982;50.810;4.442;2022-08-01T07:27:08;22.40;99.90
23609;DHT22;11982;50.810;4.442;2022-08-01T07:29:33;22.10;99.90
23609;DHT22;11982;50.810;4.442;2022-08-01T07:31:59;22.40;99.90
23609;DHT22;11982;50.810;4.442;2022-08-01T07:34:25;22.20;99.90
23609;DHT22;11982;50.810;4.442;2022-08-01T07:36:52;22.20;99.90
23609;DHT22;11982;50.810;4.442;2022-08-01T07:39:18;22.40;99.90
23609;DHT22;11982;50.810;4.442;2022-08-01T07:41:43;22.60;99.90
23609;DHT22;11982;50.810;4.442;2022-08-01T07:44:09;22.80;99.90
23609;DHT22;11982;50.810;4.442;2022-08-01T07:46:35;22.70;99.90
23609;DHT22;11982;50.810;4.442;2022-08-01T07:49:00;22.90;99.90
23609;DHT22;11982;50.810;4.442;2022-08-01T07:51:26;23.10;99.90
23609;DHT22;11982;50.810;4.442;2022-08-01T07:53:51;23.40;99.90
23609;DHT22;11982;50.810;4.442;2022-08-01T07:56:17;23.40;99.90
23609;DHT22;11982;50.810;4.442;2022-08-01T07:58:43;23.40;99.90
23609;DHT22;11982;50.810;4.442;2022-08-01T08:01:08;23.30;99.90
23609;DHT22;11982;50.810;4.442;2022-08-01T08:03:34;23.40;99.90
23609;DHT22;11982;50.810;4.442;2022-08-01T08:06:00;23.30;99.90
23609;DHT22;11982;50.810;4.442;2022-08-01T08:08:25;23.00;99.90
23609;DHT22;11982;50.810;4.442;2022-08-01T08:10:51;23.10;99.90
23609;DHT22;11982;50.810;4.442;2022-08-01T08:13:17;23.20;99.90
23609;DHT22;11982;50.810;4.442;2022-08-01T08:15:42;22.90;99.90
23609;DHT22;11982;50.810;4.442;2022-08-01T08:18:08;22.80;99.90
23609;DHT22;11982;50.810;4.442;2022-08-01T08:20:34;22.70;99.90
23609;DHT22;11982;50.810;4.442;2022-08-01T08:23:00;22.80;99.90
23609;DHT22;11982;50.810;4.442;2022-08-01T08:25:26;22.90;99.90
23609;DHT22;11982;50.810;4.442;2022-08-01T08:27:53;23.00;99.90
23609;DHT22;11982;50.810;4.442;2022-08-01T08:30:18;22.90;99.90
23609;DHT22;11982;50.810;4.442;2022-08-01T08:32:44;23.40;99.90
23609;DHT22;11982;50.810;4.442;2022-08-01T08:35:10;24.10;99.90
23609;DHT22;11982;50.810;4.442;2022-08-01T08:37:36;23.40;99.90
23609;DHT22;11982;50.810;4.442;2022-08-01T08:40:06;23.50;99.90
23609;DHT22;11982;50.810;4.442;2022-08-01T08:42:32;23.10;99.90
23609;DHT22;11982;50.810;4.442;2022-08-01T08:44:57;22.90;99.90
23609;DHT22;11982;50.810;4.442;2022-08-01T08:47:24;22.90;99.90
23609;DHT22;11982;50.810;4.442;2022-08-01T08:49:52;22.90;99.90
23609;DHT22;11982;50.810;4.442;2022-08-01T08:52:22;23.20;99.90
23609;DHT22;11982;50.810;4.442;2022-08-01T08:54:49;23.60;99.90
23609;DHT22;11982;50.810;4.442;2022-08-01T08:57:19;24.00;99.90
23609;DHT22;11982;50.810;4.442;2022-08-01T08:59:45;23.90;99.90
23609;DHT22;11982;50.810;4.442;2022-08-01T09:02:11;24.00;99.90
23609;DHT22;11982;50.810;4.442;2022-08-01T09:04:37;24.00;99.90
23609;DHT22;11982;50.810;4.442;2022-08-01T09:07:05;23.70;99.90
23609;DHT22;11982;50.810;4.442;2022-08-01T09:09:32;22.90;99.90
23609;DHT22;11982;50.810;4.442;2022-08-01T09:11:58;22.80;99.90
23609;DHT22;11982;50.810;4.442;2022-08-01T09:14:25;23.00;99.90
23609;DHT22;11982;50.810;4.442;2022-08-01T09:17:18;23.10;99.90
23609;DHT22;11982;50.810;4.442;2022-08-01T09:19:50;23.40;99.90
23609;DHT22;11982;50.810;4.442;2022-08-01T09:22:21;23.60;99.90
23609;DHT22;11982;50.810;4.442;2022-08-01T09:27:30;24.00;99.90
23609;DHT22;11982;50.810;4.442;2022-08-01T09:30:14;24.40;99.90
23609;DHT22;11982;50.810;4.442;2022-08-01T09:35:33;24.10;99.90
23609;DHT22;11982;50.810;4.442;2022-08-01T09:38:16;24.10;99.90
23609;DHT22;11982;50.810;4.442;2022-08-01T09:40:57;24.10;99.90
23609;DHT22;11982;50.810;4.442;2022-08-01T09:43:26;24.30;99.90
23609;DHT22;11982;50.810;4.442;2022-08-01T09:45:52;24.60;99.90
23609;DHT22;11982;50.810;4.442;2022-08-01T09:48:18;24.50;99.90
23609;DHT22;11982;50.810;4.442;2022-08-01T09:50:51;25.00;99.90
23609;DHT22;11982;50.810;4.442;2022-08-01T09:53:18;25.00;99.90
23609;DHT22;11982;50.810;4.442;2022-08-01T09:55:43;25.30;99.90
23609;DHT22;11982;50.810;4.442;2022-08-01T09:58:10;25.40;99.90
23609;DHT22;11982;50.810;4.442;2022-08-01T10:00:38;24.70;99.90
23609;DHT22;11982;50.810;4.442;2022-08-01T10:03:30;24.80;99.90
23609;DHT22;11982;50.810;4.442;2022-08-01T10:05:56;24.60;99.90
23609;DHT22;11982;50.810;4.442;2022-08-01T10:08:23;24.60;99.90
23609;DHT22;11982;50.810;4.442;2022-08-01T10:11:13;24.70;99.90
23609;DHT22;11982;50.810;4.442;2022-08-01T10:13:39;24.90;99.90
23609;DHT22;11982;50.810;4.442;2022-08-01T10:16:06;24.90;99.90
23609;DHT22;11982;50.810;4.442;2022-08-01T10:18:33;25.20;99.90
23609;DHT22;11982;50.810;4.442;2022-08-01T10:21:02;25.00;99.90
23609;DHT22;11982;50.810;4.442;2022-08-01T10:23:33;25.30;99.90
23609;DHT22;11982;50.810;4.442;2022-08-01T10:26:00;25.60;99.90
23609;DHT22;11982;50.810;4.442;2022-08-01T10:28:30;25.80;99.90
23609;DHT22;11982;50.810;4.442;2022-08-01T10:30:57;25.50;99.90
23609;DHT22;11982;50.810;4.442;2022-08-01T10:33:23;25.70;99.90
23609;DHT22;11982;50.810;4.442;2022-08-01T10:35:50;25.60;99.90
23609;DHT22;11982;50.810;4.442;2022-08-01T10:38:17;25.90;99.90
23609;DHT22;11982;50.810;4.442;2022-08-01T10:40:44;26.20;99.90
23609;DHT22;11982;50.810;4.442;2022-08-01T10:43:10;26.30;99.90
23609;DHT22;11982;50.810;4.442;2022-08-01T10:45:36;26.50;99.90
23609;DHT22;11982;50.810;4.442;2022-08-01T10:48:22;26.40;99.90
23609;DHT22;11982;50.810;4.442;2022-08-01T10:50:52;26.40;99.90
23609;DHT22;11982;50.810;4.442;2022-08-01T10:53:23;26.40;99.90
23609;DHT22;11982;50.810;4.442;2022-08-01T10:58:35;26.40;99.90
23609;DHT22;11982;50.810;4.442;2022-08-01T11:04:05;26.80;99.90
23609;DHT22;11982;50.810;4.442;2022-08-01T11:08:58;26.70;99.90
23609;DHT22;11982;50.810;4.442;2022-08-01T11:11:25;26.30;99.90
23609;DHT22;11982;50.810;4.442;2022-08-01T11:14:01;26.80;99.90
23609;DHT22;11982;50.810;4.442;2022-08-01T11:16:30;26.90;99.90
23609;DHT22;11982;50.810;4.442;2022-08-01T11:18:56;27.00;99.90
23609;DHT22;11982;50.810;4.442;2022-08-01T11:21:22;26.80;99.90
23609;DHT22;11982;50.810;4.442;2022-08-01T11:23:51;26.80;99.90
23609;DHT22;11982;50.810;4.442;2022-08-01T11:26:19;26.90;99.90
23609;DHT22;11982;50.810;4.442;2022-08-01T11:28:46;26.50;99.90
23609;DHT22;11982;50.810;4.442;2022-08-01T11:31:32;26.80;99.90
23609;DHT22;11982;50.810;4.442;2022-08-01T11:33:59;26.80;99.90
23609;DHT22;11982;50.810;4.442;2022-08-01T11:36:24;26.30;99.90
23609;DHT22;11982;50.810;4.442;2022-08-01T11:41:32;26.00;99.90
23609;DHT22;11982;50.810;4.442;2022-08-01T11:44:10;25.90;99.90
23609;DHT22;11982;50.810;4.442;2022-08-01T11:54:38;26.00;99.90
23609;DHT22;11982;50.810;4.442;2022-08-01T11:57:13;26.00;99.90
23609;DHT22;11982;50.810;4.442;2022-08-01T12:02:32;25.80;99.90
23609;DHT22;11982;50.810;4.442;2022-08-01T12:07:29;26.40;99.90
23609;DHT22;11982;50.810;4.442;2022-08-01T12:10:05;26.20;99.90
23609;DHT22;11982;50.810;4.442;2022-08-01T12:12:33;26.00;99.90
23609;DHT22;11982;50.810;4.442;2022-08-01T12:15:01;26.00;99.90
23609;DHT22;11982;50.810;4.442;2022-08-01T12:19:54;26.00;99.90
23609;DHT22;11982;50.810;4.442;2022-08-01T12:22:22;26.00;99.90
23609;DHT22;11982;50.810;4.442;2022-08-01T12:24:48;26.60;99.90
23609;DHT22;11982;50.810;4.442;2022-08-01T12:27:27;27.40;99.90
23609;DHT22;11982;50.810;4.442;2022-08-01T12:29:53;27.50;99.90
23609;DHT22;11982;50.810;4.442;2022-08-01T12:32:24;27.20;99.90
23609;DHT22;11982;50.810;4.442;2022-08-01T12:34:51;27.30;99.90
23609;DHT22;11982;50.810;4.442;2022-08-01T12:37:17;27.60;99.90
23609;DHT22;11982;50.810;4.442;2022-08-01T12:39:44;28.00;99.90
23609;DHT22;11982;50.810;4.442;2022-08-01T12:42:10;27.90;99.90
23609;DHT22;11982;50.810;4.442;2022-08-01T12:44:37;28.20;99.90
23609;DHT22;11982;50.810;4.442;2022-08-01T12:47:06;28.40;99.90
23609;DHT22;11982;50.810;4.442;2022-08-01T12:49:33;27.90;99.90
23609;DHT22;11982;50.810;4.442;2022-08-01T12:52:00;27.30;99.90
23609;DHT22;11982;50.810;4.442;2022-08-01T12:54:27;27.30;99.90
23609;DHT22;11982;50.810;4.442;2022-08-01T12:56:53;27.10;99.90
23609;DHT22;11982;50.810;4.442;2022-08-01T12:59:28;27.00;99.90
23609;DHT22;11982;50.810;4.442;2022-08-01T13:01:55;27.60;99.90
23609;DHT22;11982;50.810;4.442;2022-08-01T13:04:21;27.70;99.90
23609;DHT22;11982;50.810;4.442;2022-08-01T13:06:48;27.10;99.90
23609;DHT22;11982;50.810;4.442;2022-08-01T13:09:18;27.10;99.90
23609;DHT22;11982;50.810;4.442;2022-08-01T13:11:44;27.00;99.90
23609;DHT22;11982;50.810;4.442;2022-08-01T13:14:26;26.80;99.90
23609;DHT22;11982;50.810;4.442;2022-08-01T13:16:52;26.70;99.90
23609;DHT22;11982;50.810;4.442;2022-08-01T13:19:18;26.30;99.90
23609;DHT22;11982;50.810;4.442;2022-08-01T13:21:57;26.40;99.90
23609;DHT22;11982;50.810;4.442;2022-08-01T13:24:27;26.10;99.90
23609;DHT22;11982;50.810;4.442;2022-08-01T13:27:01;26.10;99.90
23609;DHT22;11982;50.810;4.442;2022-08-01T13:29:34;26.70;99.90
23609;DHT22;11982;50.810;4.442;2022-08-01T13:34:39;26.90;99.90
23609;DHT22;11982;50.810;4.442;2022-08-01T13:37:04;26.70;99.90
23609;DHT22;11982;50.810;4.442;2022-08-01T13:39:30;26.40;99.90
23609;DHT22;11982;50.810;4.442;2022-08-01T13:42:14;26.40;99.90
23609;DHT22;11982;50.810;4.442;2022-08-01T13:44:41;25.80;99.90
23609;DHT22;11982;50.810;4.442;2022-08-01T13:47:07;25.60;99.90
23609;DHT22;11982;50.810;4.442;2022-08-01T13:49:34;26.00;99.90
23609;DHT22;11982;50.810;4.442;2022-08-01T13:52:01;26.10;99.90
23609;DHT22;11982;50.810;4.442;2022-08-01T13:54:27;26.30;99.90
23609;DHT22;11982;50.810;4.442;2022-08-01T13:56:53;26.50;99.90
23609;DHT22;11982;50.810;4.442;2022-08-01T13:59:19;26.50;99.90
23609;DHT22;11982;50.810;4.442;2022-08-01T14:01:45;27.40;99.90
23609;DHT22;11982;50.810;4.442;2022-08-01T14:04:11;27.20;99.90
23609;DHT22;11982;50.810;4.442;2022-08-01T14:06:37;27.00;99.90
23609;DHT22;11982;50.810;4.442;2022-08-01T14:09:03;26.80;99.90
23609;DHT22;11982;50.810;4.442;2022-08-01T14:11:29;27.10;99.90
23609;DHT22;11982;50.810;4.442;2022-08-01T14:13:55;27.00;99.90
23609;DHT22;11982;50.810;4.442;2022-08-01T14:16:21;26.80;99.90
23609;DHT22;11982;50.810;4.442;2022-08-01T14:18:46;26.80;99.90
23609;DHT22;11982;50.810;4.442;2022-08-01T14:21:12;27.00;99.90
23609;DHT22;11982;50.810;4.442;2022-08-01T14:23:38;27.10;99.90
23609;DHT22;11982;50.810;4.442;2022-08-01T14:26:04;27.50;99.90
23609;DHT22;11982;50.810;4.442;2022-08-01T14:28:29;28.50;99.90
23609;DHT22;11982;50.810;4.442;2022-08-01T14:30:59;28.70;99.90
23609;DHT22;11982;50.810;4.442;2022-08-01T14:33:25;28.60;99.90
23609;DHT22;11982;50.810;4.442;2022-08-01T14:35:51;28.60;99.90
23609;DHT22;11982;50.810;4.442;2022-08-01T14:38:17;27.90;99.90
23609;DHT22;11982;50.810;4.442;2022-08-01T14:40:43;27.80;99.90
23609;DHT22;11982;50.810;4.442;2022-08-01T14:43:12;27.60;99.90
23609;DHT22;11982;50.810;4.442;2022-08-01T14:45:38;27.30;99.90
23609;DHT22;11982;50.810;4.442;2022-08-01T14:48:04;27.20;99.90
23609;DHT22;11982;50.810;4.442;2022-08-01T14:50:29;27.70;99.90
23609;DHT22;11982;50.810;4.442;2022-08-01T14:52:56;27.90;99.90
23609;DHT22;11982;50.810;4.442;2022-08-01T14:55:22;27.50;99.90
23609;DHT22;11982;50.810;4.442;2022-08-01T14:57:50;27.60;99.90
23609;DHT22;11982;50.810;4.442;2022-08-01T15:00:16;27.60;99.90
23609;DHT22;11982;50.810;4.442;2022-08-01T15:02:42;27.50;99.90
23609;DHT22;11982;50.810;4.442;2022-08-01T15:05:08;27.90;99.90
23609;DHT22;11982;50.810;4.442;2022-08-01T15:07:35;29.10;99.90
23609;DHT22;11982;50.810;4.442;2022-08-01T15:10:01;29.70;99.90
23609;DHT22;11982;50.810;4.442;2022-08-01T15:12:27;31.40;99.90
23609;DHT22;11982;50.810;4.442;2022-08-01T15:14:53;31.80;98.70
23609;DHT22;11982;50.810;4.442;2022-08-01T15:17:24;31.00;98.00
23609;DHT22;11982;50.810;4.442;2022-08-01T15:19:52;29.90;99.30
23609;DHT22;11982;50.810;4.442;2022-08-01T15:22:19;29.10;99.50
23609;DHT22;11982;50.810;4.442;2022-08-01T15:24:45;28.50;99.90
23609;DHT22;11982;50.810;4.442;2022-08-01T15:27:10;28.40;99.90
23609;DHT22;11982;50.810;4.442;2022-08-01T15:29:36;28.00;99.90
23609;DHT22;11982;50.810;4.442;2022-08-01T15:32:04;28.00;99.90
23609;DHT22;11982;50.810;4.442;2022-08-01T15:34:31;28.10;99.90
23609;DHT22;11982;50.810;4.442;2022-08-01T15:36:57;28.30;99.90
23609;DHT22;11982;50.810;4.442;2022-08-01T15:39:23;28.10;99.90
23609;DHT22;11982;50.810;4.442;2022-08-01T15:41:49;28.30;99.90
23609;DHT22;11982;50.810;4.442;2022-08-01T15:44:16;28.00;99.90
23609;DHT22;11982;50.810;4.442;2022-08-01T15:46:46;27.90;99.90
23609;DHT22;11982;50.810;4.442;2022-08-01T15:49:11;27.60;99.90
23609;DHT22;11982;50.810;4.442;2022-08-01T15:51:37;27.30;99.90
23609;DHT22;11982;50.810;4.442;2022-08-01T15:54:02;27.20;99.90
23609;DHT22;11982;50.810;4.442;2022-08-01T15:56:31;27.00;99.90
23609;DHT22;11982;50.810;4.442;2022-08-01T15:58:57;27.20;99.90
23609;DHT22;11982;50.810;4.442;2022-08-01T16:01:23;27.10;99.90
23609;DHT22;11982;50.810;4.442;2022-08-01T16:03:51;26.70;99.90
23609;DHT22;11982;50.810;4.442;2022-08-01T16:06:17;26.60;99.90
23609;DHT22;11982;50.810;4.442;2022-08-01T16:08:43;26.50;99.90
23609;DHT22;11982;50.810;4.442;2022-08-01T16:11:08;26.50;99.90
23609;DHT22;11982;50.810;4.442;2022-08-01T16:13:34;26.40;99.90
23609;DHT22;11982;50.810;4.442;2022-08-01T16:16:00;26.40;99.90
23609;DHT22;11982;50.810;4.442;2022-08-01T16:18:27;26.40;99.90